sensor_id;sensor_type;location;lat;lon;timestamp;pressure;altitude;pressure_sealevel;temperature;humidity
4085;BME280;2057;50.858;6.572;2022-09-09T00:04:29;99643.41;;;16.92;98.86
4085;BME280;2057;50.858;6.572;2022-09-09T00:09:30;99635.63;;;16.81;98.34
4085;BME280;2057;50.858;6.572;2022-09-09T00:12:02;99641.69;;;16.91;96.89
4085;BME280;2057;50.858;6.572;2022-09-09T00:14:39;99633.81;;;16.71;98.27
4085;BME280;2057;50.858;6.572;2022-09-09T00:20:28;99633.66;;;16.55;99.80
4085;BME280;2057;50.858;6.572;2022-09-09T00:23:02;99631.03;;;16.51;99.08
4085;BME280;2057;50.858;6.572;2022-09-09T00:25:39;99630.09;;;16.41;97.87
4085;BME280;2057;50.858;6.572;2022-09-09T00:28:18;99633.56;;;16.46;97.20
4085;BME280;2057;50.858;6.572;2022-09-09T00:30:44;99630.09;;;16.41;96.09
4085;BME280;2057;50.858;6.572;2022-09-09T00:33:14;99636.84;;;16.36;95.11
4085;BME280;2057;50.858;6.572;2022-09-09T00:35:47;99631.59;;;16.25;95.12
4085;BME280;2057;50.858;6.572;2022-09-09T00:38:24;99621.41;;;16.29;95.88
4085;BME280;2057;50.858;6.572;2022-09-09T00:40:53;99629.09;;;16.31;95.14
4085;BME280;2057;50.858;6.572;2022-09-09T00:43:31;99625.03;;;16.47;93.67
4085;BME280;2057;50.858;6.572;2022-09-09T00:46:10;99624.09;;;16.40;94.27
4085;BME280;2057;50.858;6.572;2022-09-09T00:54:44;99628.31;;;16.37;96.09
4085;BME280;2057;50.858;6.572;2022-09-09T00:59:50;99633.31;;;16.24;96.92
4085;BME280;2057;50.858;6.572;2022-09-09T01:02:29;99631.56;;;16.22;96.93
4085;BME280;2057;50.858;6.572;2022-09-09T01:05:12;99626.41;;;16.19;98.25
4085;BME280;2057;50.858;6.572;2022-09-09T01:07:44;99622.78;;;16.03;98.66
4085;BME280;2057;50.858;6.572;2022-09-09T01:10:32;99627.03;;;16.00;98.81
4085;BME280;2057;50.858;6.572;2022-09-09T01:13:04;99622.03;;;16.08;98.25
4085;BME280;2057;50.858;6.572;2022-09-09T01:15:37;99627.84;;;15.95;98.93
4085;BME280;2057;50.858;6.572;2022-09-09T01:18:12;99621.97;;;16.05;98.57
4085;BME280;2057;50.858;6.572;2022-09-09T01:20:59;99621.00;;;15.97;99.14
4085;BME280;2057;50.858;6.572;2022-09-09T01:23:44;99620.22;;;16.01;99.10
4085;BME280;2057;50.858;6.572;2022-09-09T01:26:34;99618.34;;;15.88;99.20
4085;BME280;2057;50.858;6.572;2022-09-09T01:29:00;99618.38;;;15.89;100.00
4085;BME280;2057;50.858;6.572;2022-09-09T01:31:57;99625.13;;;15.84;99.93
4085;BME280;2057;50.858;6.572;2022-09-09T01:34:43;99623.28;;;15.77;100.00
4085;BME280;2057;50.858;6.572;2022-09-09T01:37:10;99615.53;;;15.71;100.00
4085;BME280;2057;50.858;6.572;2022-09-09T01:39:39;99627.31;;;15.61;100.00
4085;BME280;2057;50.858;6.572;2022-09-09T01:42:08;99622.38;;;15.72;100.00
4085;BME280;2057;50.858;6.572;2022-09-09T01:44:35;99621.44;;;15.66;100.00
4085;BME280;2057;50.858;6.572;2022-09-09T01:47:02;99620.59;;;15.67;100.00
4085;BME280;2057;50.858;6.572;2022-09-09T01:49:28;99618.94;;;15.69;100.00
4085;BME280;2057;50.858;6.572;2022-09-09T01:51:55;99619.63;;;15.61;100.00
4085;BME280;2057;50.858;6.572;2022-09-09T01:54:24;99618.84;;;15.63;100.00
4085;BME280;2057;50.858;6.572;2022-09-09T01:59:59;99616.31;;;15.66;100.00
4085;BME280;2057;50.858;6.572;2022-09-09T02:04:59;99615.41;;;15.63;100.00
4085;BME280;2057;50.858;6.572;2022-09-09T02:09:57;99613.06;;;15.78;100.00
4085;BME280;2057;50.858;6.572;2022-09-09T02:12:24;99613.94;;;15.77;100.00
4085;BME280;2057;50.858;6.572;2022-09-09T02:15:04;99607.09;;;15.78;100.00
4085;BME280;2057;50.858;6.572;2022-09-09T02:17:36;99604.53;;;15.76;100.00
4085;BME280;2057;50.858;6.572;2022-09-09T02:20:07;99615.66;;;15.80;100.00
4085;BME280;2057;50.858;6.572;2022-09-09T02:22:34;99606.41;;;15.88;100.00
4085;BME280;2057;50.858;6.572;2022-09-09T02:25:01;99608.97;;;15.88;100.00
4085;BME280;2057;50.858;6.572;2022-09-09T02:27:28;99608.13;;;15.89;100.00
4085;BME280;2057;50.858;6.572;2022-09-09T02:29:56;99603.88;;;15.91;100.00
4085;BME280;2057;50.858;6.572;2022-09-09T02:32:23;99612.59;;;16.06;100.00
4085;BME280;2057;50.858;6.572;2022-09-09T02:35:03;99620.25;;;16.03;100.00
4085;BME280;2057;50.858;6.572;2022-09-09T02:37:36;99612.56;;;16.03;100.00
4085;BME280;2057;50.858;6.572;2022-09-09T02:40:03;99610.81;;;16.00;100.00
4085;BME280;2057;50.858;6.572;2022-09-09T02:42:29;99609.34;;;16.19;100.00
4085;BME280;2057;50.858;6.572;2022-09-09T02:44:55;99614.38;;;16.11;100.00
4085;BME280;2057;50.858;6.572;2022-09-09T02:47:36;99598.19;;;16.15;100.00
4085;BME280;2057;50.858;6.572;2022-09-09T02:50:22;99599.03;;;16.13;100.00
4085;BME280;2057;50.858;6.572;2022-09-09T02:53:12;99590.50;;;16.14;100.00
4085;BME280;2057;50.858;6.572;2022-09-09T02:55:50;99595.56;;;16.08;100.00
4085;BME280;2057;50.858;6.572;2022-09-09T02:58:18;99595.59;;;16.11;100.00
4085;BME280;2057;50.858;6.572;2022-09-09T03:00:48;99596.47;;;16.11;100.00
4085;BME280;2057;50.858;6.572;2022-09-09T03:03:16;99595.69;;;16.19;100.00
4085;BME280;2057;50.858;6.572;2022-09-09T03:05:43;99592.97;;;16.06;100.00
4085;BME280;2057;50.858;6.572;2022-09-09T03:08:09;99595.53;;;16.06;100.00
4085;BME280;2057;50.858;6.572;2022-09-09T03:10:34;99599.88;;;16.13;100.00
4085;BME280;2057;50.858;6.572;2022-09-09T03:13:00;99606.75;;;16.16;100.00
4085;BME280;2057;50.858;6.572;2022-09-09T03:15:26;99607.63;;;16.18;100.00
4085;BME280;2057;50.858;6.572;2022-09-09T03:17:56;99597.31;;;16.13;100.00
4085;BME280;2057;50.858;6.572;2022-09-09T03:20:23;99602.66;;;16.30;100.00
4085;BME280;2057;50.858;6.572;2022-09-09T03:22:48;99600.69;;;16.08;100.00
4085;BME280;2057;50.858;6.572;2022-09-09T03:25:13;99606.66;;;16.10;100.00
4085;BME280;2057;50.858;6.572;2022-09-09T03:27:39;99607.56;;;16.12;100.00
4085;BME280;2057;50.858;6.572;2022-09-09T03:30:05;99605.75;;;16.05;100.00
4085;BME280;2057;50.858;6.572;2022-09-09T03:32:31;99600.69;;;16.09;100.00
4085;BME280;2057;50.858;6.572;2022-09-09T03:34:56;99605.00;;;16.12;100.00
4085;BME280;2057;50.858;6.572;2022-09-09T03:37:22;99605.00;;;16.13;100.00
4085;BME280;2057;50.858;6.572;2022-09-09T03:39:48;99597.44;;;16.23;100.00
4085;BME280;2057;50.858;6.572;2022-09-09T03:42:14;99596.66;;;16.30;100.00
4085;BME280;2057;50.858;6.572;2022-09-09T03:44:40;99597.50;;;16.29;100.00
4085;BME280;2057;50.858;6.572;2022-09-09T03:47:07;99607.66;;;16.23;100.00
4085;BME280;2057;50.858;6.572;2022-09-09T03:49:32;99604.28;;;16.24;100.00
4085;BME280;2057;50.858;6.572;2022-09-09T03:51:58;99607.72;;;16.27;100.00
4085;BME280;2057;50.858;6.572;2022-09-09T03:54:24;99594.97;;;16.30;100.00
4085;BME280;2057;50.858;6.572;2022-09-09T03:56:50;99601.81;;;16.35;100.00
4085;BME280;2057;50.858;6.572;2022-09-09T03:59:15;99600.13;;;16.37;100.00
4085;BME280;2057;50.858;6.572;2022-09-09T04:01:41;99596.63;;;16.28;100.00
4085;BME280;2057;50.858;6.572;2022-09-09T04:04:06;99599.13;;;16.22;100.00
4085;BME280;2057;50.858;6.572;2022-09-09T04:06:32;99600.97;;;16.36;100.00
4085;BME280;2057;50.858;6.572;2022-09-09T04:08:58;99596.59;;;16.24;100.00
4085;BME280;2057;50.858;6.572;2022-09-09T04:11:23;99601.63;;;16.16;100.00
4085;BME280;2057;50.858;6.572;2022-09-09T04:13:49;99603.38;;;16.19;100.00
4085;BME280;2057;50.858;6.572;2022-09-09T04:16:14;99596.53;;;16.18;100.00
4085;BME280;2057;50.858;6.572;2022-09-09T04:18:41;99600.09;;;16.32;100.00
4085;BME280;2057;50.858;6.572;2022-09-09T04:21:08;99604.22;;;16.19;100.00
4085;BME280;2057;50.858;6.572;2022-09-09T04:23:35;99598.31;;;16.26;100.00
4085;BME280;2057;50.858;6.572;2022-09-09T04:26:02;99597.38;;;16.18;100.00
4085;BME280;2057;50.858;6.572;2022-09-09T04:28:30;99599.09;;;16.19;100.00
4085;BME280;2057;50.858;6.572;2022-09-09T04:30:57;99603.38;;;16.19;100.00
4085;BME280;2057;50.858;6.572;2022-09-09T04:33:24;99597.53;;;16.30;100.00
4085;BME280;2057;50.858;6.572;2022-09-09T04:35:53;99592.41;;;16.30;100.00
4085;BME280;2057;50.858;6.572;2022-09-09T04:38:20;99595.81;;;16.29;100.00
4085;BME280;2057;50.858;6.572;2022-09-09T04:40:48;99594.13;;;16.35;100.00
4085;BME280;2057;50.858;6.572;2022-09-09T04:43:14;99592.50;;;16.40;100.00
4085;BME280;2057;50.858;6.572;2022-09-09T04:45:40;99601.81;;;16.35;100.00
4085;BME280;2057;50.858;6.572;2022-09-09T04:48:06;99599.34;;;16.41;100.00
4085;BME280;2057;50.858;6.572;2022-09-09T04:50:31;99601.06;;;16.42;100.00
4085;BME280;2057;50.858;6.572;2022-09-09T04:53:00;99601.13;;;16.46;100.00
4085;BME280;2057;50.858;6.572;2022-09-09T04:55:26;99600.28;;;16.51;100.00
4085;BME280;2057;50.858;6.572;2022-09-09T04:57:51;99600.28;;;16.52;100.00
4085;BME280;2057;50.858;6.572;2022-09-09T05:00:17;99606.31;;;16.54;100.00
4085;BME280;2057;50.858;6.572;2022-09-09T05:02:43;99602.94;;;16.60;100.00
4085;BME280;2057;50.858;6.572;2022-09-09T05:05:09;99609.66;;;16.47;100.00
4085;BME280;2057;50.858;6.572;2022-09-09T05:07:36;99606.31;;;16.54;100.00
4085;BME280;2057;50.858;6.572;2022-09-09T05:10:02;99604.56;;;16.52;100.00
4085;BME280;2057;50.858;6.572;2022-09-09T05:12:30;99606.31;;;16.54;100.00
4085;BME280;2057;50.858;6.572;2022-09-09T05:14:56;99612.75;;;17.00;98.28
4085;BME280;2057;50.858;6.572;2022-09-09T05:17:21;99614.09;;;16.65;100.00
4085;BME280;2057;50.858;6.572;2022-09-09T05:19:46;99614.00;;;16.54;100.00
4085;BME280;2057;50.858;6.572;2022-09-09T05:22:12;99612.16;;;16.42;100.00
4085;BME280;2057;50.858;6.572;2022-09-09T05:24:38;99612.09;;;16.38;100.00
4085;BME280;2057;50.858;6.572;2022-09-09T05:27:04;99606.88;;;16.27;100.00
4085;BME280;2057;50.858;6.572;2022-09-09T05:29:31;99605.25;;;16.37;100.00
4085;BME280;2057;50.858;6.572;2022-09-09T05:31:59;99609.56;;;16.38;100.00
4085;BME280;2057;50.858;6.572;2022-09-09T05:34:24;99603.53;;;16.34;100.00
4085;BME280;2057;50.858;6.572;2022-09-09T05:36:50;99605.25;;;16.34;100.00
4085;BME280;2057;50.858;6.572;2022-09-09T05:39:16;99601.88;;;16.38;100.00
4085;BME280;2057;50.858;6.572;2022-09-09T05:41:41;99602.72;;;16.37;100.00
4085;BME280;2057;50.858;6.572;2022-09-09T05:44:06;99608.72;;;16.39;100.00
4085;BME280;2057;50.858;6.572;2022-09-09T05:46:32;99601.81;;;16.33;100.00
4085;BME280;2057;50.858;6.572;2022-09-09T05:48:57;99610.44;;;16.38;100.00
4085;BME280;2057;50.858;6.572;2022-09-09T05:51:27;99613.78;;;16.34;99.99
4085;BME280;2057;50.858;6.572;2022-09-09T05:53:55;99611.22;;;16.36;99.44
4085;BME280;2057;50.858;6.572;2022-09-09T05:56:25;99613.03;;;16.43;98.52
4085;BME280;2057;50.858;6.572;2022-09-09T05:58:52;99623.25;;;16.40;98.87
4085;BME280;2057;50.858;6.572;2022-09-09T06:01:25;99624.91;;;16.38;99.26
4085;BME280;2057;50.858;6.572;2022-09-09T06:03:54;99630.16;;;16.45;99.50
4085;BME280;2057;50.858;6.572;2022-09-09T06:06:29;99627.69;;;16.55;98.23
4085;BME280;2057;50.858;6.572;2022-09-09T06:08:56;99618.31;;;16.58;98.45
4085;BME280;2057;50.858;6.572;2022-09-09T06:11:27;99623.41;;;16.55;98.18
4085;BME280;2057;50.858;6.572;2022-09-09T06:13:52;99626.91;;;16.63;97.06
4085;BME280;2057;50.858;6.572;2022-09-09T06:16:21;99620.19;;;16.75;96.95
4085;BME280;2057;50.858;6.572;2022-09-09T06:18:49;99621.91;;;16.76;97.42
4085;BME280;2057;50.858;6.572;2022-09-09T06:21:19;99618.50;;;16.80;97.61
4085;BME280;2057;50.858;6.572;2022-09-09T06:23:45;99611.69;;;16.82;97.97
4085;BME280;2057;50.858;6.572;2022-09-09T06:26:14;99616.91;;;16.91;96.93
4085;BME280;2057;50.858;6.572;2022-09-09T06:28:40;99610.22;;;17.03;96.27
4085;BME280;2057;50.858;6.572;2022-09-09T06:31:09;99610.28;;;17.14;96.79
4085;BME280;2057;50.858;6.572;2022-09-09T06:33:37;99608.56;;;17.11;94.51
4085;BME280;2057;50.858;6.572;2022-09-09T06:36:04;99605.25;;;17.23;94.22
4085;BME280;2057;50.858;6.572;2022-09-09T06:38:30;99602.66;;;17.24;92.37
4085;BME280;2057;50.858;6.572;2022-09-09T06:40:57;99601.78;;;17.21;90.96
4085;BME280;2057;50.858;6.572;2022-09-09T06:43:26;99606.94;;;17.21;91.17
4085;BME280;2057;50.858;6.572;2022-09-09T06:46:00;99606.84;;;17.10;89.17
4085;BME280;2057;50.858;6.572;2022-09-09T06:48:26;99608.63;;;17.16;87.48
4085;BME280;2057;50.858;6.572;2022-09-09T06:51:13;99602.63;;;17.21;87.64
4085;BME280;2057;50.858;6.572;2022-09-09T06:53:40;99610.41;;;17.28;88.83
4085;BME280;2057;50.858;6.572;2022-09-09T06:58:34;99606.22;;;17.42;88.12
4085;BME280;2057;50.858;6.572;2022-09-09T07:01:03;99603.69;;;17.48;86.96
4085;BME280;2057;50.858;6.572;2022-09-09T07:03:28;99603.69;;;17.48;86.71
4085;BME280;2057;50.858;6.572;2022-09-09T07:05:55;99605.47;;;17.55;86.54
4085;BME280;2057;50.858;6.572;2022-09-09T07:08:21;99613.19;;;17.62;85.61
4085;BME280;2057;50.858;6.572;2022-09-09T07:10:46;99609.75;;;17.61;84.51
4085;BME280;2057;50.858;6.572;2022-09-09T07:13:12;99613.19;;;17.62;84.18
4085;BME280;2057;50.858;6.572;2022-09-09T07:15:41;99614.91;;;17.64;84.21
4085;BME280;2057;50.858;6.572;2022-09-09T07:18:06;99607.22;;;17.66;83.36
4085;BME280;2057;50.858;6.572;2022-09-09T07:20:32;99621.72;;;17.58;82.60
4085;BME280;2057;50.858;6.572;2022-09-09T07:22:57;99619.16;;;17.61;82.74
4085;BME280;2057;50.858;6.572;2022-09-09T07:25:24;99618.28;;;17.60;83.34
4085;BME280;2057;50.858;6.572;2022-09-09T07:27:49;99622.59;;;17.60;82.98
4085;BME280;2057;50.858;6.572;2022-09-09T07:30:15;99628.63;;;17.68;83.57
4085;BME280;2057;50.858;6.572;2022-09-09T07:32:40;99627.78;;;17.69;81.54
4085;BME280;2057;50.858;6.572;2022-09-09T07:35:06;99630.44;;;17.81;81.93
4085;BME280;2057;50.858;6.572;2022-09-09T07:37:31;99630.44;;;17.86;81.12
4085;BME280;2057;50.858;6.572;2022-09-09T07:39:56;99625.34;;;17.94;80.37
4085;BME280;2057;50.858;6.572;2022-09-09T07:42:22;99625.44;;;18.12;80.14
4085;BME280;2057;50.858;6.572;2022-09-09T07:44:47;99634.03;;;18.22;81.31
4085;BME280;2057;50.858;6.572;2022-09-09T07:47:13;99625.47;;;18.23;79.32
4085;BME280;2057;50.858;6.572;2022-09-09T07:49:38;99626.38;;;18.30;77.17
4085;BME280;2057;50.858;6.572;2022-09-09T07:52:04;99633.22;;;18.39;78.80
4085;BME280;2057;50.858;6.572;2022-09-09T07:54:29;99626.41;;;18.39;78.85
4085;BME280;2057;50.858;6.572;2022-09-09T07:56:54;99637.50;;;18.27;79.49
4085;BME280;2057;50.858;6.572;2022-09-09T07:59:20;99624.59;;;18.15;78.88
4085;BME280;2057;50.858;6.572;2022-09-09T08:01:47;99621.19;;;18.14;79.78
4085;BME280;2057;50.858;6.572;2022-09-09T08:04:16;99623.75;;;18.14;79.65
4085;BME280;2057;50.858;6.572;2022-09-09T08:06:45;99628.94;;;18.25;80.13
4085;BME280;2057;50.858;6.572;2022-09-09T08:09:11;99628.97;;;18.33;77.18
4085;BME280;2057;50.858;6.572;2022-09-09T08:11:37;99641.00;;;18.53;75.14
4085;BME280;2057;50.858;6.572;2022-09-09T08:14:04;99635.88;;;18.59;74.32
4085;BME280;2057;50.858;6.572;2022-09-09T08:16:33;99635.03;;;18.55;74.88
4085;BME280;2057;50.858;6.572;2022-09-09T08:18:58;99641.88;;;18.58;74.61
4085;BME280;2057;50.858;6.572;2022-09-09T08:21:27;99647.88;;;18.50;74.29
4085;BME280;2057;50.858;6.572;2022-09-09T08:23:54;99637.56;;;18.52;75.36
4085;BME280;2057;50.858;6.572;2022-09-09T08:26:28;99643.56;;;18.46;73.47
4085;BME280;2057;50.858;6.572;2022-09-09T08:28:55;99641.84;;;18.52;74.18
4085;BME280;2057;50.858;6.572;2022-09-09T08:31:36;99634.16;;;18.58;75.16
4085;BME280;2057;50.858;6.572;2022-09-09T08:34:04;99645.31;;;18.63;73.98
4085;BME280;2057;50.858;6.572;2022-09-09T08:36:33;99645.31;;;18.63;73.41
4085;BME280;2057;50.858;6.572;2022-09-09T08:39:00;99635.88;;;18.59;73.52
4085;BME280;2057;50.858;6.572;2022-09-09T08:41:50;99648.75;;;18.59;72.82
4085;BME280;2057;50.858;6.572;2022-09-09T08:58:09;99668.53;;;18.97;73.56
4085;BME280;2057;50.858;6.572;2022-09-09T09:00:45;99660.84;;;19.00;73.72
4085;BME280;2057;50.858;6.572;2022-09-09T09:03:22;99652.25;;;19.07;74.74
4085;BME280;2057;50.858;6.572;2022-09-09T09:06:04;99658.22;;;18.89;73.67
4085;BME280;2057;50.858;6.572;2022-09-09T09:08:44;99657.38;;;18.86;73.48
4085;BME280;2057;50.858;6.572;2022-09-09T09:11:13;99657.34;;;18.76;74.55
4085;BME280;2057;50.858;6.572;2022-09-09T09:13:45;99663.34;;;18.80;75.27
4085;BME280;2057;50.858;6.572;2022-09-09T09:19:13;99655.69;;;18.92;75.27
4085;BME280;2057;50.858;6.572;2022-09-09T09:21:48;99659.94;;;18.89;75.43
4085;BME280;2057;50.858;6.572;2022-09-09T09:25:00;99665.97;;;18.97;75.16
4085;BME280;2057;50.858;6.572;2022-09-09T09:27:12;99664.25;;;18.96;74.96
4085;BME280;2057;50.858;6.572;2022-09-09T09:29:39;99666.78;;;18.80;74.25
4085;BME280;2057;50.858;6.572;2022-09-09T09:32:11;99663.41;;;18.95;75.36
4085;BME280;2057;50.858;6.572;2022-09-09T09:34:38;99668.53;;;18.89;75.62
4085;BME280;2057;50.858;6.572;2022-09-09T09:37:15;99674.50;;;18.84;73.74
4085;BME280;2057;50.858;6.572;2022-09-09T09:39:45;99663.34;;;18.81;74.34
4085;BME280;2057;50.858;6.572;2022-09-09T09:42:16;99665.06;;;18.89;74.09
4085;BME280;2057;50.858;6.572;2022-09-09T09:44:42;99677.13;;;19.05;72.99
4085;BME280;2057;50.858;6.572;2022-09-09T09:47:14;99668.56;;;19.11;74.02
4085;BME280;2057;50.858;6.572;2022-09-09T09:49:51;99664.25;;;19.30;73.94
4085;BME280;2057;50.858;6.572;2022-09-09T09:52:21;99666.84;;;19.18;72.04
4085;BME280;2057;50.858;6.572;2022-09-09T09:54:48;99670.28;;;19.17;73.62
4085;BME280;2057;50.858;6.572;2022-09-09T09:57:17;99672.84;;;19.38;73.80
4085;BME280;2057;50.858;6.572;2022-09-09T09:59:43;99669.41;;;19.70;73.21
4085;BME280;2057;50.858;6.572;2022-09-09T10:04:44;99674.56;;;19.52;74.42
4085;BME280;2057;50.858;6.572;2022-09-09T10:07:20;99660.84;;;19.48;73.19
4085;BME280;2057;50.858;6.572;2022-09-09T10:09:50;99654.81;;;19.63;71.97
4085;BME280;2057;50.858;6.572;2022-09-09T10:12:43;99650.47;;;19.79;73.46
4085;BME280;2057;50.858;6.572;2022-09-09T10:23:11;99668.56;;;19.42;72.43
4085;BME280;2057;50.858;6.572;2022-09-09T10:25:44;99658.25;;;19.43;73.17
4085;BME280;2057;50.858;6.572;2022-09-09T10:28:22;99665.97;;;19.50;72.68
4085;BME280;2057;50.858;6.572;2022-09-09T10:30:58;99661.72;;;19.46;72.87
4085;BME280;2057;50.858;6.572;2022-09-09T10:36:23;99655.69;;;19.54;72.71
4085;BME280;2057;50.858;6.572;2022-09-09T10:39:00;99647.06;;;19.72;72.53
4085;BME280;2057;50.858;6.572;2022-09-09T10:41:38;99648.75;;;19.73;72.13
4085;BME280;2057;50.858;6.572;2022-09-09T10:52:16;99647.13;;;19.17;71.32
4085;BME280;2057;50.858;6.572;2022-09-09T10:55:10;99642.81;;;19.36;72.37
4085;BME280;2057;50.858;6.572;2022-09-09T10:57:41;99638.53;;;19.46;70.37
4085;BME280;2057;50.858;6.572;2022-09-09T11:00:19;99647.91;;;19.70;70.80
4085;BME280;2057;50.858;6.572;2022-09-09T11:03:04;99637.59;;;19.74;68.88
4085;BME280;2057;50.858;6.572;2022-09-09T11:08:10;99640.19;;;19.78;69.47
4085;BME280;2057;50.858;6.572;2022-09-09T11:13:18;99640.16;;;19.93;70.32
4085;BME280;2057;50.858;6.572;2022-09-09T11:15:48;99638.47;;;19.77;68.52
4085;BME280;2057;50.858;6.572;2022-09-09T11:18:21;99632.44;;;19.84;70.46
4085;BME280;2057;50.858;6.572;2022-09-09T11:20:51;99632.44;;;19.84;69.99
4085;BME280;2057;50.858;6.572;2022-09-09T11:23:26;99628.16;;;19.73;69.25
4085;BME280;2057;50.858;6.572;2022-09-09T11:25:58;99631.63;;;19.63;68.76
4085;BME280;2057;50.858;6.572;2022-09-09T11:31:44;99621.28;;;19.88;68.16
4085;BME280;2057;50.858;6.572;2022-09-09T11:42:15;99642.78;;;19.60;70.19
4085;BME280;2057;50.858;6.572;2022-09-09T11:44:42;99633.34;;;19.56;68.93
4085;BME280;2057;50.858;6.572;2022-09-09T11:47:26;99642.72;;;19.84;68.97
4085;BME280;2057;50.858;6.572;2022-09-09T11:49:55;99635.78;;;20.12;67.36
4085;BME280;2057;50.858;6.572;2022-09-09T11:52:24;99632.25;;;20.40;67.06
4085;BME280;2057;50.858;6.572;2022-09-09T11:54:52;99634.91;;;20.21;65.85
4085;BME280;2057;50.858;6.572;2022-09-09T11:57:35;99631.47;;;20.22;67.08
4085;BME280;2057;50.858;6.572;2022-09-09T12:00:01;99633.25;;;20.03;66.02
4085;BME280;2057;50.858;6.572;2022-09-09T12:02:28;99630.72;;;19.95;67.60
4085;BME280;2057;50.858;6.572;2022-09-09T12:07:51;99634.16;;;19.77;68.19
4085;BME280;2057;50.858;6.572;2022-09-09T12:13:16;99667.69;;;19.43;73.68
4085;BME280;2057;50.858;6.572;2022-09-09T12:15:50;99668.56;;;18.99;77.12
4085;BME280;2057;50.858;6.572;2022-09-09T12:21:06;99674.47;;;18.76;83.10
4085;BME280;2057;50.858;6.572;2022-09-09T12:23:52;99668.53;;;19.03;82.48
4085;BME280;2057;50.858;6.572;2022-09-09T12:26:28;99664.25;;;19.70;76.73
4085;BME280;2057;50.858;6.572;2022-09-09T12:32:07;99642.44;;;20.57;71.91
4085;BME280;2057;50.858;6.572;2022-09-09T12:34:46;99652.81;;;20.50;71.87
4085;BME280;2057;50.858;6.572;2022-09-09T12:37:46;99637.97;;;20.88;71.30
4085;BME280;2057;50.858;6.572;2022-09-09T12:40:21;99634.47;;;21.02;66.99
4085;BME280;2057;50.858;6.572;2022-09-09T12:42:47;99634.25;;;21.26;66.33
4085;BME280;2057;50.858;6.572;2022-09-09T12:45:21;99636.19;;;20.96;67.19
4085;BME280;2057;50.858;6.572;2022-09-09T12:48:03;99637.97;;;20.88;68.11
4085;BME280;2057;50.858;6.572;2022-09-09T12:50:34;99633.00;;;20.54;68.95
4085;BME280;2057;50.858;6.572;2022-09-09T12:53:10;99639.72;;;20.86;68.45
4085;BME280;2057;50.858;6.572;2022-09-09T12:55:49;99632.06;;;20.72;68.71
4085;BME280;2057;50.858;6.572;2022-09-09T12:58:17;99630.19;;;20.94;69.42
4085;BME280;2057;50.858;6.572;2022-09-09T13:00:52;99617.69;;;21.47;67.04
4085;BME280;2057;50.858;6.572;2022-09-09T13:03:19;99611.63;;;21.50;65.89
4085;BME280;2057;50.858;6.572;2022-09-09T13:05:46;99614.50;;;21.21;66.20
4085;BME280;2057;50.858;6.572;2022-09-09T13:08:13;99613.72;;;21.09;66.14
4085;BME280;2057;50.858;6.572;2022-09-09T13:13:13;99620.03;;;20.76;68.48
4085;BME280;2057;50.858;6.572;2022-09-09T13:15:39;99619.19;;;20.74;69.41
4085;BME280;2057;50.858;6.572;2022-09-09T13:18:07;99608.84;;;20.74;70.02
4085;BME280;2057;50.858;6.572;2022-09-09T13:20:36;99613.97;;;20.77;69.73
4085;BME280;2057;50.858;6.572;2022-09-09T13:23:02;99608.84;;;20.71;70.36
4085;BME280;2057;50.858;6.572;2022-09-09T13:25:28;99604.50;;;20.82;69.58
4085;BME280;2057;50.858;6.572;2022-09-09T13:28:04;99596.69;;;20.88;69.31
4085;BME280;2057;50.858;6.572;2022-09-09T13:30:35;99596.72;;;20.87;69.94
4085;BME280;2057;50.858;6.572;2022-09-09T13:35:35;99610.53;;;20.78;68.57
4085;BME280;2057;50.858;6.572;2022-09-09T13:38:08;99598.53;;;20.72;67.12
4085;BME280;2057;50.858;6.572;2022-09-09T13:40:34;99590.09;;;20.47;66.78
4085;BME280;2057;50.858;6.572;2022-09-09T13:43:02;99598.69;;;20.46;67.72
4085;BME280;2057;50.858;6.572;2022-09-09T13:45:28;99589.16;;;20.56;69.64
4085;BME280;2057;50.858;6.572;2022-09-09T13:47:54;99597.78;;;20.53;70.96
4085;BME280;2057;50.858;6.572;2022-09-09T13:50:27;99597.09;;;20.21;75.52
4085;BME280;2057;50.858;6.572;2022-09-09T13:52:55;99610.03;;;20.14;77.98
4085;BME280;2057;50.858;6.572;2022-09-09T13:55:24;99613.50;;;20.05;80.20
4085;BME280;2057;50.858;6.572;2022-09-09T13:57:58;99619.56;;;19.74;82.53
4085;BME280;2057;50.858;6.572;2022-09-09T14:00:26;99623.97;;;19.29;86.40
4085;BME280;2057;50.858;6.572;2022-09-09T14:02:53;99629.94;;;19.31;87.55
4085;BME280;2057;50.858;6.572;2022-09-09T14:05:20;99627.41;;;19.00;92.44
4085;BME280;2057;50.858;6.572;2022-09-09T14:07:47;99635.00;;;18.64;95.27
4085;BME280;2057;50.858;6.572;2022-09-09T14:10:13;99630.59;;;18.18;93.63
4085;BME280;2057;50.858;6.572;2022-09-09T14:12:39;99629.78;;;18.24;94.60
4085;BME280;2057;50.858;6.572;2022-09-09T14:15:05;99628.91;;;18.14;95.03
4085;BME280;2057;50.858;6.572;2022-09-09T14:17:33;99631.50;;;18.27;93.96
4085;BME280;2057;50.858;6.572;2022-09-09T14:19:59;99629.84;;;18.43;95.41
4085;BME280;2057;50.858;6.572;2022-09-09T14:22:24;99626.44;;;18.58;93.72
4085;BME280;2057;50.858;6.572;2022-09-09T14:24:51;99623.94;;;18.93;94.57
4085;BME280;2057;50.858;6.572;2022-09-09T14:27:17;99619.66;;;19.11;93.44
4085;BME280;2057;50.858;6.572;2022-09-09T14:29:44;99615.34;;;19.35;92.09
4085;BME280;2057;50.858;6.572;2022-09-09T14:32:10;99620.50;;;19.39;91.26
4085;BME280;2057;50.858;6.572;2022-09-09T14:34:35;99617.00;;;19.65;92.13
4085;BME280;2057;50.858;6.572;2022-09-09T14:37:01;99617.03;;;19.62;89.50
4085;BME280;2057;50.858;6.572;2022-09-09T14:39:26;99617.84;;;19.80;85.22
4085;BME280;2057;50.858;6.572;2022-09-09T14:41:52;99607.50;;;19.97;83.99
4085;BME280;2057;50.858;6.572;2022-09-09T14:44:17;99617.88;;;19.89;84.25
4085;BME280;2057;50.858;6.572;2022-09-09T14:46:43;99604.13;;;19.74;85.01
4085;BME280;2057;50.858;6.572;2022-09-09T14:49:08;99620.47;;;19.70;84.44
4085;BME280;2057;50.858;6.572;2022-09-09T14:51:35;99623.03;;;19.70;82.65
4085;BME280;2057;50.858;6.572;2022-09-09T14:54:01;99629.06;;;19.51;81.01
4085;BME280;2057;50.858;6.572;2022-09-09T14:56:30;99620.50;;;19.50;83.36
4085;BME280;2057;50.858;6.572;2022-09-09T14:58:58;99629.94;;;19.43;88.44
4085;BME280;2057;50.858;6.572;2022-09-09T15:01:26;99630.81;;;19.19;89.01
4085;BME280;2057;50.858;6.572;2022-09-09T15:03:59;99629.97;;;19.28;90.76
4085;BME280;2057;50.858;6.572;2022-09-09T15:06:27;99628.22;;;19.16;89.61
4085;BME280;2057;50.858;6.572;2022-09-09T15:08:53;99635.97;;;19.04;89.22
4085;BME280;2057;50.858;6.572;2022-09-09T15:11:20;99637.69;;;18.99;90.23